sensor_id;sensor_type;location;lat;lon;timestamp;temperature;humidity
18906;DHT22;9585;51.018;4.282;2023-11-21T00:01:15;7.10;99.90
18906;DHT22;9585;51.018;4.282;2023-11-21T00:03:53;7.00;99.90
18906;DHT22;9585;51.018;4.282;2023-11-21T00:06:29;7.00;99.90
18906;DHT22;9585;51.018;4.282;2023-11-21T00:09:00;6.90;99.90
18906;DHT22;9585;51.018;4.282;2023-11-21T00:11:31;6.90;99.90
18906;DHT22;9585;51.018;4.282;2023-11-21T00:14:07;6.80;99.90
18906;DHT22;9585;51.018;4.282;2023-11-21T00:16:39;6.80;99.90
18906;DHT22;9585;51.018;4.282;2023-11-21T00:19:22;6.70;99.90
18906;DHT22;9585;51.018;4.282;2023-11-21T00:21:57;6.70;99.90
18906;DHT22;9585;51.018;4.282;2023-11-21T00:24:26;6.60;99.90
18906;DHT22;9585;51.018;4.282;2023-11-21T00:26:54;6.60;99.90
18906;DHT22;9585;51.018;4.282;2023-11-21T00:29:25;6.60;99.90
18906;DHT22;9585;51.018;4.282;2023-11-21T00:31:53;6.60;99.90
18906;DHT22;9585;51.018;4.282;2023-11-21T00:34:29;6.70;99.90
18906;DHT22;9585;51.018;4.282;2023-11-21T00:37:00;6.70;99.90
18906;DHT22;9585;51.018;4.282;2023-11-21T00:39:33;6.80;99.90
18906;DHT22;9585;51.018;4.282;2023-11-21T00:42:06;6.80;99.90
18906;DHT22;9585;51.018;4.282;2023-11-21T00:44:42;6.90;99.90
18906;DHT22;9585;51.018;4.282;2023-11-21T00:47:12;6.90;99.90
18906;DHT22;9585;51.018;4.282;2023-11-21T00:49:43;6.90;99.90
18906;DHT22;9585;51.018;4.282;2023-11-21T00:52:14;7.10;99.90
18906;DHT22;9585;51.018;4.282;2023-11-21T00:54:43;7.10;99.90
18906;DHT22;9585;51.018;4.282;2023-11-21T00:57:21;7.20;99.90
18906;DHT22;9585;51.018;4.282;2023-11-21T00:59:52;7.30;99.90
18906;DHT22;9585;51.018;4.282;2023-11-21T01:02:22;7.30;99.90
18906;DHT22;9585;51.018;4.282;2023-11-21T01:04:56;7.30;99.90
18906;DHT22;9585;51.018;4.282;2023-11-21T01:07:32;7.40;99.90
18906;DHT22;9585;51.018;4.282;2023-11-21T01:10:03;7.40;99.90
18906;DHT22;9585;51.018;4.282;2023-11-21T01:12:34;7.40;99.90
18906;DHT22;9585;51.018;4.282;2023-11-21T01:15:02;7.40;99.90
18906;DHT22;9585;51.018;4.282;2023-11-21T01:17:35;7.40;99.90
18906;DHT22;9585;51.018;4.282;2023-11-21T01:20:05;7.50;99.90
18906;DHT22;9585;51.018;4.282;2023-11-21T01:22:40;7.50;99.90
18906;DHT22;9585;51.018;4.282;2023-11-21T01:25:11;7.50;99.90
18906;DHT22;9585;51.018;4.282;2023-11-21T01:27:40;7.60;99.90
18906;DHT22;9585;51.018;4.282;2023-11-21T01:30:09;7.60;99.90
18906;DHT22;9585;51.018;4.282;2023-11-21T01:32:38;7.50;99.90
18906;DHT22;9585;51.018;4.282;2023-11-21T01:35:06;7.50;99.90
18906;DHT22;9585;51.018;4.282;2023-11-21T01:37:33;7.50;99.90
18906;DHT22;9585;51.018;4.282;2023-11-21T01:40:03;7.60;99.90
18906;DHT22;9585;51.018;4.282;2023-11-21T01:42:33;7.60;99.90
18906;DHT22;9585;51.018;4.282;2023-11-21T01:45:02;7.70;99.90
18906;DHT22;9585;51.018;4.282;2023-11-21T01:47:31;7.70;99.90
18906;DHT22;9585;51.018;4.282;2023-11-21T01:49:59;7.70;99.90
18906;DHT22;9585;51.018;4.282;2023-11-21T01:52:27;7.70;99.90
18906;DHT22;9585;51.018;4.282;2023-11-21T01:54:55;7.70;99.90
18906;DHT22;9585;51.018;4.282;2023-11-21T01:57:25;7.70;99.90
18906;DHT22;9585;51.018;4.282;2023-11-21T01:59:54;7.80;99.90
18906;DHT22;9585;51.018;4.282;2023-11-21T02:02:22;7.70;99.90
18906;DHT22;9585;51.018;4.282;2023-11-21T02:04:50;7.70;99.90
18906;DHT22;9585;51.018;4.282;2023-11-21T02:07:18;7.80;99.90
18906;DHT22;9585;51.018;4.282;2023-11-21T02:09:45;7.80;99.90
18906;DHT22;9585;51.018;4.282;2023-11-21T02:12:14;7.80;99.90
18906;DHT22;9585;51.018;4.282;2023-11-21T02:14:43;7.80;99.90
18906;DHT22;9585;51.018;4.282;2023-11-21T02:17:12;7.80;99.90
18906;DHT22;9585;51.018;4.282;2023-11-21T02:19:40;7.80;99.90
18906;DHT22;9585;51.018;4.282;2023-11-21T02:22:09;7.80;99.90
18906;DHT22;9585;51.018;4.282;2023-11-21T02:24:41;7.80;99.90
18906;DHT22;9585;51.018;4.282;2023-11-21T02:27:10;7.80;99.90
18906;DHT22;9585;51.018;4.282;2023-11-21T02:29:38;7.90;99.90
18906;DHT22;9585;51.018;4.282;2023-11-21T02:32:06;7.90;99.90
18906;DHT22;9585;51.018;4.282;2023-11-21T02:34:36;7.90;99.90
18906;DHT22;9585;51.018;4.282;2023-11-21T02:37:05;7.90;99.90
18906;DHT22;9585;51.018;4.282;2023-11-21T02:39:33;8.00;99.90
18906;DHT22;9585;51.018;4.282;2023-11-21T02:42:02;8.00;99.90
18906;DHT22;9585;51.018;4.282;2023-11-21T02:44:30;8.10;99.90
18906;DHT22;9585;51.018;4.282;2023-11-21T02:46:58;8.00;99.90
18906;DHT22;9585;51.018;4.282;2023-11-21T02:49:26;8.00;99.90
18906;DHT22;9585;51.018;4.282;2023-11-21T02:51:54;8.00;99.90
18906;DHT22;9585;51.018;4.282;2023-11-21T02:54:22;7.90;99.90
18906;DHT22;9585;51.018;4.282;2023-11-21T02:56:51;7.90;99.90
18906;DHT22;9585;51.018;4.282;2023-11-21T02:59:20;7.90;99.90
18906;DHT22;9585;51.018;4.282;2023-11-21T03:01:48;8.00;99.90
18906;DHT22;9585;51.018;4.282;2023-11-21T03:04:16;8.00;99.90
18906;DHT22;9585;51.018;4.282;2023-11-21T03:06:44;8.00;99.90
18906;DHT22;9585;51.018;4.282;2023-11-21T03:09:12;8.10;99.90
18906;DHT22;9585;51.018;4.282;2023-11-21T03:11:39;8.10;99.90
18906;DHT22;9585;51.018;4.282;2023-11-21T03:14:07;8.20;99.90
18906;DHT22;9585;51.018;4.282;2023-11-21T03:16:36;8.20;99.90
18906;DHT22;9585;51.018;4.282;2023-11-21T03:19:05;8.20;99.90
18906;DHT22;9585;51.018;4.282;2023-11-21T03:21:34;8.30;99.90
18906;DHT22;9585;51.018;4.282;2023-11-21T03:24:03;8.30;99.90
18906;DHT22;9585;51.018;4.282;2023-11-21T03:26:30;8.30;99.90
18906;DHT22;9585;51.018;4.282;2023-11-21T03:28:58;8.30;99.90
18906;DHT22;9585;51.018;4.282;2023-11-21T03:31:26;8.20;99.90
18906;DHT22;9585;51.018;4.282;2023-11-21T03:33:55;8.30;99.90
18906;DHT22;9585;51.018;4.282;2023-11-21T03:36:23;8.30;99.90
18906;DHT22;9585;51.018;4.282;2023-11-21T03:38:52;8.40;99.90
18906;DHT22;9585;51.018;4.282;2023-11-21T03:41:20;8.40;99.90
18906;DHT22;9585;51.018;4.282;2023-11-21T03:43:48;8.40;99.90
18906;DHT22;9585;51.018;4.282;2023-11-21T03:46:16;8.40;99.90
18906;DHT22;9585;51.018;4.282;2023-11-21T03:48:44;8.40;99.90
18906;DHT22;9585;51.018;4.282;2023-11-21T03:51:15;8.40;99.90
18906;DHT22;9585;51.018;4.282;2023-11-21T03:53:43;8.40;99.90
18906;DHT22;9585;51.018;4.282;2023-11-21T03:56:11;8.40;99.90
18906;DHT22;9585;51.018;4.282;2023-11-21T03:58:38;8.40;99.90
18906;DHT22;9585;51.018;4.282;2023-11-21T04:01:06;8.40;99.90
18906;DHT22;9585;51.018;4.282;2023-11-21T04:03:34;8.50;99.90
18906;DHT22;9585;51.018;4.282;2023-11-21T04:06:02;8.50;99.90
18906;DHT22;9585;51.018;4.282;2023-11-21T04:08:31;8.50;99.90
18906;DHT22;9585;51.018;4.282;2023-11-21T04:10:59;8.50;99.90
18906;DHT22;9585;51.018;4.282;2023-11-21T04:13:27;8.50;99.90
18906;DHT22;9585;51.018;4.282;2023-11-21T04:15:55;8.50;99.90
18906;DHT22;9585;51.018;4.282;2023-11-21T04:18:23;8.50;99.90
18906;DHT22;9585;51.018;4.282;2023-11-21T04:20:52;8.60;99.90
18906;DHT22;9585;51.018;4.282;2023-11-21T04:23:19;8.50;99.90
18906;DHT22;9585;51.018;4.282;2023-11-21T04:25:49;8.60;99.90
18906;DHT22;9585;51.018;4.282;2023-11-21T04:28:20;8.60;99.90
18906;DHT22;9585;51.018;4.282;2023-11-21T04:30:48;8.60;99.90
18906;DHT22;9585;51.018;4.282;2023-11-21T04:33:16;8.60;99.90
18906;DHT22;9585;51.018;4.282;2023-11-21T04:35:46;8.60;99.90
18906;DHT22;9585;51.018;4.282;2023-11-21T04:38:17;8.60;99.90
18906;DHT22;9585;51.018;4.282;2023-11-21T04:40:45;8.60;99.90
18906;DHT22;9585;51.018;4.282;2023-11-21T04:43:27;8.60;99.90
18906;DHT22;9585;51.018;4.282;2023-11-21T04:46:15;8.70;99.90
18906;DHT22;9585;51.018;4.282;2023-11-21T04:49:12;8.60;99.90
18906;DHT22;9585;51.018;4.282;2023-11-21T04:51:40;8.60;99.90
18906;DHT22;9585;51.018;4.282;2023-11-21T04:54:12;8.60;99.90
18906;DHT22;9585;51.018;4.282;2023-11-21T04:56:53;8.70;99.90
18906;DHT22;9585;51.018;4.282;2023-11-21T04:59:23;8.70;99.90
18906;DHT22;9585;51.018;4.282;2023-11-21T05:01:59;8.70;99.90
18906;DHT22;9585;51.018;4.282;2023-11-21T05:04:27;8.80;99.90
18906;DHT22;9585;51.018;4.282;2023-11-21T05:06:56;8.80;99.90
18906;DHT22;9585;51.018;4.282;2023-11-21T05:09:24;8.70;99.90
18906;DHT22;9585;51.018;4.282;2023-11-21T05:11:54;8.70;99.90
18906;DHT22;9585;51.018;4.282;2023-11-21T05:14:23;8.70;99.90
18906;DHT22;9585;51.018;4.282;2023-11-21T05:16:52;8.70;99.90
18906;DHT22;9585;51.018;4.282;2023-11-21T05:19:19;8.70;99.90
18906;DHT22;9585;51.018;4.282;2023-11-21T05:21:50;8.70;99.90
18906;DHT22;9585;51.018;4.282;2023-11-21T05:24:20;8.70;99.90
18906;DHT22;9585;51.018;4.282;2023-11-21T05:26:48;8.70;99.90
18906;DHT22;9585;51.018;4.282;2023-11-21T05:29:16;8.70;99.90
18906;DHT22;9585;51.018;4.282;2023-11-21T05:31:45;8.70;99.90
18906;DHT22;9585;51.018;4.282;2023-11-21T05:34:13;8.70;99.90
18906;DHT22;9585;51.018;4.282;2023-11-21T05:36:43;8.70;99.90
18906;DHT22;9585;51.018;4.282;2023-11-21T05:39:11;8.70;99.90
18906;DHT22;9585;51.018;4.282;2023-11-21T05:41:39;8.70;99.90
18906;DHT22;9585;51.018;4.282;2023-11-21T05:44:07;8.70;99.90
18906;DHT22;9585;51.018;4.282;2023-11-21T05:46:35;8.70;99.90
18906;DHT22;9585;51.018;4.282;2023-11-21T05:49:05;8.80;99.90
18906;DHT22;9585;51.018;4.282;2023-11-21T05:51:34;8.70;99.90
18906;DHT22;9585;51.018;4.282;2023-11-21T05:54:02;8.70;99.90
18906;DHT22;9585;51.018;4.282;2023-11-21T05:56:29;8.70;99.90
18906;DHT22;9585;51.018;4.282;2023-11-21T05:58:57;8.80;99.90
18906;DHT22;9585;51.018;4.282;2023-11-21T06:01:25;8.80;99.90
18906;DHT22;9585;51.018;4.282;2023-11-21T06:03:54;8.80;99.90
18906;DHT22;9585;51.018;4.282;2023-11-21T06:06:23;8.80;99.90
18906;DHT22;9585;51.018;4.282;2023-11-21T06:08:52;8.80;99.90
18906;DHT22;9585;51.018;4.282;2023-11-21T06:11:19;8.70;99.90
18906;DHT22;9585;51.018;4.282;2023-11-21T06:13:47;8.70;99.90
18906;DHT22;9585;51.018;4.282;2023-11-21T06:16:19;8.70;99.90
18906;DHT22;9585;51.018;4.282;2023-11-21T06:18:47;8.60;99.90
18906;DHT22;9585;51.018;4.282;2023-11-21T06:21:15;8.60;99.90
18906;DHT22;9585;51.018;4.282;2023-11-21T06:23:46;8.70;99.90
18906;DHT22;9585;51.018;4.282;2023-11-21T06:26:13;8.70;99.90
18906;DHT22;9585;51.018;4.282;2023-11-21T06:28:41;8.60;99.90
18906;DHT22;9585;51.018;4.282;2023-11-21T06:31:08;8.70;99.90
18906;DHT22;9585;51.018;4.282;2023-11-21T06:33:36;8.60;99.90
18906;DHT22;9585;51.018;4.282;2023-11-21T06:36:04;8.70;99.90
18906;DHT22;9585;51.018;4.282;2023-11-21T06:38:32;8.70;99.90
18906;DHT22;9585;51.018;4.282;2023-11-21T06:41:02;8.80;99.90
18906;DHT22;9585;51.018;4.282;2023-11-21T06:43:30;8.80;99.90
18906;DHT22;9585;51.018;4.282;2023-11-21T06:45:58;8.80;99.90
18906;DHT22;9585;51.018;4.282;2023-11-21T06:48:28;8.80;99.90
18906;DHT22;9585;51.018;4.282;2023-11-21T06:50:57;8.80;99.90
18906;DHT22;9585;51.018;4.282;2023-11-21T06:53:24;8.80;99.90
18906;DHT22;9585;51.018;4.282;2023-11-21T06:55:52;8.80;99.90
18906;DHT22;9585;51.018;4.282;2023-11-21T06:58:21;8.90;99.90
18906;DHT22;9585;51.018;4.282;2023-11-21T07:00:49;8.90;99.90
18906;DHT22;9585;51.018;4.282;2023-11-21T07:03:18;8.90;99.90
18906;DHT22;9585;51.018;4.282;2023-11-21T07:05:46;8.80;99.90
18906;DHT22;9585;51.018;4.282;2023-11-21T07:08:13;8.90;99.90
18906;DHT22;9585;51.018;4.282;2023-11-21T07:10:41;8.80;99.90
18906;DHT22;9585;51.018;4.282;2023-11-21T07:13:09;8.70;99.90
18906;DHT22;9585;51.018;4.282;2023-11-21T07:15:40;8.70;99.90
18906;DHT22;9585;51.018;4.282;2023-11-21T07:18:09;8.80;99.90
18906;DHT22;9585;51.018;4.282;2023-11-21T07:20:37;8.80;99.90
18906;DHT22;9585;51.018;4.282;2023-11-21T07:23:05;8.90;99.90
18906;DHT22;9585;51.018;4.282;2023-11-21T07:25:32;8.90;99.90
18906;DHT22;9585;51.018;4.282;2023-11-21T07:28:00;8.80;99.90
18906;DHT22;9585;51.018;4.282;2023-11-21T07:30:31;8.80;99.90
18906;DHT22;9585;51.018;4.282;2023-11-21T07:33:01;8.80;99.90
18906;DHT22;9585;51.018;4.282;2023-11-21T07:35:28;8.90;99.90
18906;DHT22;9585;51.018;4.282;2023-11-21T07:37:56;9.00;99.90
18906;DHT22;9585;51.018;4.282;2023-11-21T07:40:24;9.00;99.90
18906;DHT22;9585;51.018;4.282;2023-11-21T07:42:53;9.00;99.90
18906;DHT22;9585;51.018;4.282;2023-11-21T07:45:23;9.10;99.90
18906;DHT22;9585;51.018;4.282;2023-11-21T07:47:55;9.10;99.90
18906;DHT22;9585;51.018;4.282;2023-11-21T07:50:24;9.10;99.90
18906;DHT22;9585;51.018;4.282;2023-11-21T07:52:52;9.10;99.90
18906;DHT22;9585;51.018;4.282;2023-11-21T07:55:20;9.10;99.90
18906;DHT22;9585;51.018;4.282;2023-11-21T07:57:48;9.10;99.90
18906;DHT22;9585;51.018;4.282;2023-11-21T08:00:16;9.10;99.90
18906;DHT22;9585;51.018;4.282;2023-11-21T08:02:44;9.20;99.90
18906;DHT22;9585;51.018;4.282;2023-11-21T08:05:12;9.20;99.90
18906;DHT22;9585;51.018;4.282;2023-11-21T08:07:42;9.10;99.90
18906;DHT22;9585;51.018;4.282;2023-11-21T08:10:11;9.10;99.90
18906;DHT22;9585;51.018;4.282;2023-11-21T08:12:40;9.10;99.90
18906;DHT22;9585;51.018;4.282;2023-11-21T08:15:09;9.10;99.90
18906;DHT22;9585;51.018;4.282;2023-11-21T08:17:37;9.10;99.90
18906;DHT22;9585;51.018;4.282;2023-11-21T08:20:06;9.20;99.90
18906;DHT22;9585;51.018;4.282;2023-11-21T08:22:34;9.30;99.90
18906;DHT22;9585;51.018;4.282;2023-11-21T08:25:05;9.30;99.90
18906;DHT22;9585;51.018;4.282;2023-11-21T08:27:34;9.30;99.90
18906;DHT22;9585;51.018;4.282;2023-11-21T08:30:03;9.20;99.90
18906;DHT22;9585;51.018;4.282;2023-11-21T08:32:30;9.30;99.90
18906;DHT22;9585;51.018;4.282;2023-11-21T08:35:02;9.40;99.90
18906;DHT22;9585;51.018;4.282;2023-11-21T08:37:43;9.40;99.90
18906;DHT22;9585;51.018;4.282;2023-11-21T08:40:26;9.50;99.90
18906;DHT22;9585;51.018;4.282;2023-11-21T08:45:37;9.50;99.90
18906;DHT22;9585;51.018;4.282;2023-11-21T12:03:20;10.40;99.90
18906;DHT22;9585;51.018;4.282;2023-11-21T12:05:49;10.40;99.90
18906;DHT22;9585;51.018;4.282;2023-11-21T12:08:21;10.40;99.90
18906;DHT22;9585;51.018;4.282;2023-11-21T12:10:57;10.40;99.90
18906;DHT22;9585;51.018;4.282;2023-11-21T12:13:25;10.50;99.90
18906;DHT22;9585;51.018;4.282;2023-11-21T12:15:55;10.50;99.90
18906;DHT22;9585;51.018;4.282;2023-11-21T12:18:25;10.50;99.90
18906;DHT22;9585;51.018;4.282;2023-11-21T12:20:53;10.50;99.90
18906;DHT22;9585;51.018;4.282;2023-11-21T12:23:21;10.60;99.90
18906;DHT22;9585;51.018;4.282;2023-11-21T12:25:49;10.60;99.90
18906;DHT22;9585;51.018;4.282;2023-11-21T12:28:17;10.70;99.90
18906;DHT22;9585;51.018;4.282;2023-11-21T12:31:04;10.70;99.90
18906;DHT22;9585;51.018;4.282;2023-11-21T13:04:33;10.60;99.90
18906;DHT22;9585;51.018;4.282;2023-11-21T13:10:34;10.80;99.90
18906;DHT22;9585;51.018;4.282;2023-11-21T13:56:38;11.00;99.90
18906;DHT22;9585;51.018;4.282;2023-11-21T14:00:47;11.00;99.90
18906;DHT22;9585;51.018;4.282;2023-11-21T14:17:39;11.00;99.90
18906;DHT22;9585;51.018;4.282;2023-11-21T14:29:23;10.80;99.90
18906;DHT22;9585;51.018;4.282;2023-11-21T14:39:09;10.50;99.90
18906;DHT22;9585;51.018;4.282;2023-11-21T14:41:54;10.60;99.90
18906;DHT22;9585;51.018;4.282;2023-11-21T14:44:38;10.50;99.90
18906;DHT22;9585;51.018;4.282;2023-11-21T15:11:24;10.40;99.90
18906;DHT22;9585;51.018;4.282;2023-11-21T15:13:57;10.40;99.90
18906;DHT22;9585;51.018;4.282;2023-11-21T15:16:26;10.40;99.90
18906;DHT22;9585;51.018;4.282;2023-11-21T15:19:19;10.30;99.90
18906;DHT22;9585;51.018;4.282;2023-11-21T15:22:31;10.30;99.90
18906;DHT22;9585;51.018;4.282;2023-11-21T15:25:17;10.20;99.90
18906;DHT22;9585;51.018;4.282;2023-11-21T15:33:52;10.20;99.90
18906;DHT22;9585;51.018;4.282;2023-11-21T16:28:01;9.80;99.90
18906;DHT22;9585;51.018;4.282;2023-11-21T16:42:04;9.90;99.90
18906;DHT22;9585;51.018;4.282;2023-11-21T16:56:44;9.70;99.90
18906;DHT22;9585;51.018;4.282;2023-11-21T17:07:57;9.70;99.90
18906;DHT22;9585;51.018;4.282;2023-11-21T17:10:30;9.80;99.90
18906;DHT22;9585;51.018;4.282;2023-11-21T17:13:00;9.80;99.90
18906;DHT22;9585;51.018;4.282;2023-11-21T17:15:33;9.80;99.90
18906;DHT22;9585;51.018;4.282;2023-11-21T17:18:02;9.80;99.90
18906;DHT22;9585;51.018;4.282;2023-11-21T17:20:37;9.80;99.90
18906;DHT22;9585;51.018;4.282;2023-11-21T17:23:05;9.80;99.90
18906;DHT22;9585;51.018;4.282;2023-11-21T17:34:47;9.70;99.90
18906;DHT22;9585;51.018;4.282;2023-11-21T17:41:34;9.70;99.90
18906;DHT22;9585;51.018;4.282;2023-11-21T17:46:00;9.70;99.90
18906;DHT22;9585;51.018;4.282;2023-11-21T17:47:56;9.60;99.90
18906;DHT22;9585;51.018;4.282;2023-11-21T17:54:22;9.60;99.90
18906;DHT22;9585;51.018;4.282;2023-11-21T17:57:27;9.60;99.90
18906;DHT22;9585;51.018;4.282;2023-11-21T18:08:02;9.50;99.90
